Time;durP1;ratioP1;P1;durP2;ratioP2;P2;SDS_P1;SDS_P2;PMS_P1;PMS_P2;Temp;Humidity;BMP_temperature;BMP_pressure;BME280_temperature;BME280_humidity;BME280_pressure;Samples;Min_cycle;Max_cycle;Signal;HPM_P1;HPM_P2
2023/10/13 00:02:13;;;;;;;469.37;199.67;;;;;;;;;;4980224;28;20190;-77
2023/10/13 00:04:39;;;;;;;498.53;215.60;;;;;;;;;;4994647;28;20189;-78
2023/10/13 00:07:09;;;;;;;469.87;199.90;;;;;;;;;;4999232;28;20190;-78
2023/10/13 00:09:37;;;;;;;488.30;212.80;;;;;;;;;;4975634;28;20236;-77
2023/10/13 00:12:13;;;;;;;461.87;195.67;;;;;;;;;;4978431;28;20193;-79
2023/10/13 00:14:41;;;;;;;468.50;199.77;;;;;;;;;;4977337;28;20172;-78
2023/10/13 00:17:07;;;;;;;493.83;211.50;;;;;;;;;;4973777;28;20189;-77
2023/10/13 00:19:38;;;;;;;492.20;216.17;;;;;;;;;;4994561;28;20270;-77
2023/10/13 00:22:10;;;;;;;447.70;189.87;;;;;;;;;;4975471;28;20221;-77
2023/10/13 00:24:43;;;;;;;474.00;205.00;;;;;;;;;;4975704;28;20287;-78
2023/10/13 00:27:24;;;;;;;479.73;213.00;;;;;;;;;;4976804;28;20185;-78
2023/10/13 00:29:50;;;;;;;502.50;216.83;;;;;;;;;;4993301;28;20245;-79
2023/10/13 00:32:20;;;;;;;481.33;203.53;;;;;;;;;;4995428;28;20740;-77
2023/10/13 00:34:45;;;;;;;460.70;195.60;;;;;;;;;;4979104;28;20228;-77
2023/10/13 00:37:18;;;;;;;484.77;209.30;;;;;;;;;;4979126;28;20714;-79
2023/10/13 00:39:44;;;;;;;497.27;216.07;;;;;;;;;;4973499;28;20184;-78
2023/10/13 00:42:19;;;;;;;476.20;208.63;;;;;;;;;;4977662;28;20193;-78
2023/10/13 00:44:48;;;;;;;517.07;228.90;;;;;;;;;;4975102;28;20203;-78
2023/10/13 00:47:17;;;;;;;463.10;199.50;;;;;;;;;;4982190;28;20201;-77
2023/10/13 00:49:47;;;;;;;448.83;189.20;;;;;;;;;;4984688;28;20212;-78
2023/10/13 00:52:15;;;;;;;480.50;205.90;;;;;;;;;;4997565;28;20185;-78
2023/10/13 00:54:41;;;;;;;487.13;213.83;;;;;;;;;;4998755;28;20262;-78
2023/10/13 00:57:12;;;;;;;467.67;202.63;;;;;;;;;;5002438;28;20196;-77
2023/10/13 00:59:38;;;;;;;499.07;219.63;;;;;;;;;;4995670;28;20278;-77
2023/10/13 01:04:49;;;;;;;463.43;199.37;;;;;;;;;;4981307;28;20271;-79
2023/10/13 01:07:22;;;;;;;470.33;205.40;;;;;;;;;;4978638;28;20197;-78
2023/10/13 01:09:48;;;;;;;502.07;222.93;;;;;;;;;;4978605;28;20226;-77
2023/10/13 01:12:14;;;;;;;463.17;196.87;;;;;;;;;;4984214;28;20185;-79
2023/10/13 01:14:40;;;;;;;493.73;212.57;;;;;;;;;;5002855;28;20193;-78
2023/10/13 01:17:06;;;;;;;463.37;200.20;;;;;;;;;;5004039;28;20184;-78
2023/10/13 01:19:42;;;;;;;443.23;186.47;;;;;;;;;;4981088;28;20209;-78
2023/10/13 01:22:08;;;;;;;482.43;210.43;;;;;;;;;;4980153;28;20193;-79
2023/10/13 01:24:37;;;;;;;485.87;218.50;;;;;;;;;;4978072;28;20193;-78
2023/10/13 01:27:24;;;;;;;465.80;200.33;;;;;;;;;;4985910;28;20985;-78
2023/10/13 01:29:55;;;;;;;509.67;228.07;;;;;;;;;;4974880;28;20930;-77
2023/10/13 01:32:22;;;;;;;461.03;198.63;;;;;;;;;;4999999;28;20185;-78
2023/10/13 01:34:49;;;;;;;469.97;206.73;;;;;;;;;;4977957;28;20626;-79
2023/10/13 01:37:16;;;;;;;503.17;221.23;;;;;;;;;;4993991;28;20185;-79
2023/10/13 01:39:47;;;;;;;476.13;205.40;;;;;;;;;;4977627;28;20324;-78
2023/10/13 01:42:14;;;;;;;458.77;201.40;;;;;;;;;;4979727;28;20235;-78
2023/10/13 01:44:40;;;;;;;471.50;204.90;;;;;;;;;;4984488;28;20193;-80
2023/10/13 01:47:07;;;;;;;483.03;209.70;;;;;;;;;;4982326;28;20198;-80
2023/10/13 01:49:42;;;;;;;468.73;203.20;;;;;;;;;;4980004;28;20213;-81
2023/10/13 01:52:11;;;;;;;475.33;206.07;;;;;;;;;;4978980;28;20195;-80
2023/10/13 01:54:40;;;;;;;490.80;216.70;;;;;;;;;;4980836;28;20187;-80
2023/10/13 01:57:06;;;;;;;454.43;196.67;;;;;;;;;;4999906;28;20275;-79
2023/10/13 01:59:32;;;;;;;478.60;210.80;;;;;;;;;;4997976;28;20255;-78
2023/10/13 02:02:00;;;;;;;505.70;230.00;;;;;;;;;;4993495;28;20196;-79
2023/10/13 02:04:28;;;;;;;451.43;190.53;;;;;;;;;;5002241;28;20193;-77
2023/10/13 02:06:56;;;;;;;502.30;225.97;;;;;;;;;;4976537;28;20614;-77
2023/10/13 02:09:29;;;;;;;474.10;205.27;;;;;;;;;;4978248;28;20236;-79
2023/10/13 02:11:56;;;;;;;480.13;208.27;;;;;;;;;;4998174;28;20648;-78
2023/10/13 02:14:24;;;;;;;456.00;195.63;;;;;;;;;;4997792;28;20662;-77
2023/10/13 02:16:55;;;;;;;505.00;219.60;;;;;;;;;;4996259;28;20264;-76
2023/10/13 02:19:21;;;;;;;479.37;213.27;;;;;;;;;;4978339;28;20217;-76
2023/10/13 02:21:58;;;;;;;484.47;212.07;;;;;;;;;;4998154;28;20198;-76
2023/10/13 02:24:29;;;;;;;433.07;185.33;;;;;;;;;;5002791;28;20212;-76
2023/10/13 02:26:55;;;;;;;492.07;213.03;;;;;;;;;;4977689;28;20981;-76
2023/10/13 02:29:21;;;;;;;480.97;208.27;;;;;;;;;;4998684;28;20205;-76
2023/10/13 02:31:54;;;;;;;492.80;217.33;;;;;;;;;;4992151;28;20244;-76
2023/10/13 02:34:22;;;;;;;445.83;188.50;;;;;;;;;;4981941;28;20185;-76
2023/10/13 02:36:48;;;;;;;468.17;203.73;;;;;;;;;;4994594;28;20921;-76
2023/10/13 02:39:24;;;;;;;432.87;183.77;;;;;;;;;;4980092;28;20185;-76
2023/10/13 02:41:50;;;;;;;467.37;203.53;;;;;;;;;;4977863;28;20181;-76
2023/10/13 02:44:30;;;;;;;476.60;206.23;;;;;;;;;;4980524;28;20265;-76
2023/10/13 02:46:57;;;;;;;475.00;199.10;;;;;;;;;;4999577;28;20851;-77
2023/10/13 02:49:25;;;;;;;493.57;214.20;;;;;;;;;;4983545;28;20674;-76
2023/10/13 02:51:52;;;;;;;489.87;214.47;;;;;;;;;;4993925;28;20193;-76
2023/10/13 02:54:19;;;;;;;480.53;209.10;;;;;;;;;;4982304;28;20376;-76
2023/10/13 02:56:59;;;;;;;433.27;182.57;;;;;;;;;;4978657;28;20729;-76
2023/10/13 02:59:34;;;;;;;470.30;202.80;;;;;;;;;;4978282;28;20199;-76
2023/10/13 03:02:07;;;;;;;453.47;196.50;;;;;;;;;;4982485;28;20192;-76
2023/10/13 03:04:33;;;;;;;506.43;220.80;;;;;;;;;;4981221;28;20177;-76
2023/10/13 03:06:59;;;;;;;485.90;206.90;;;;;;;;;;4977916;28;20208;-76
2023/10/13 03:09:25;;;;;;;474.50;199.47;;;;;;;;;;4976296;28;20828;-76
2023/10/13 03:11:51;;;;;;;498.87;215.57;;;;;;;;;;4976874;28;20190;-76
2023/10/13 03:14:30;;;;;;;475.87;204.70;;;;;;;;;;4993657;28;20196;-76
2023/10/13 03:17:08;;;;;;;486.37;207.20;;;;;;;;;;4998042;28;20193;-76
2023/10/13 03:19:36;;;;;;;482.17;205.47;;;;;;;;;;4998431;28;20229;-76
2023/10/13 03:22:10;;;;;;;494.47;210.20;;;;;;;;;;4994666;28;20186;-76
2023/10/13 03:24:41;;;;;;;481.43;204.83;;;;;;;;;;4995187;28;20896;-76
2023/10/13 03:27:08;;;;;;;493.37;213.70;;;;;;;;;;4993960;28;20665;-76
2023/10/13 03:29:35;;;;;;;446.53;185.97;;;;;;;;;;4996514;28;20240;-76
2023/10/13 03:32:11;;;;;;;511.30;222.37;;;;;;;;;;4994914;28;20190;-75
2023/10/13 03:34:40;;;;;;;476.50;203.33;;;;;;;;;;4974738;28;20655;-75
2023/10/13 03:37:13;;;;;;;457.27;192.87;;;;;;;;;;4998305;28;20204;-76
2023/10/13 03:39:44;;;;;;;504.90;222.17;;;;;;;;;;4977108;28;20193;-76
2023/10/13 03:42:18;;;;;;;524.33;229.70;;;;;;;;;;4989917;28;20205;-76
2023/10/13 03:44:46;;;;;;;439.30;184.77;;;;;;;;;;4983486;28;20264;-76
2023/10/13 03:47:18;;;;;;;493.33;213.77;;;;;;;;;;4975607;28;20204;-76
2023/10/13 03:49:44;;;;;;;501.47;216.73;;;;;;;;;;4978805;28;20688;-75
2023/10/13 03:52:13;;;;;;;459.17;195.40;;;;;;;;;;4975944;28;20198;-76
2023/10/13 03:54:40;;;;;;;512.43;222.33;;;;;;;;;;4996373;28;20255;-76
2023/10/13 03:57:11;;;;;;;458.00;197.30;;;;;;;;;;4992662;28;20502;-76
2023/10/13 03:59:37;;;;;;;464.57;197.60;;;;;;;;;;4997722;28;20778;-77
2023/10/13 04:02:06;;;;;;;505.27;222.93;;;;;;;;;;4993128;28;20193;-78
2023/10/13 04:04:48;;;;;;;487.33;208.10;;;;;;;;;;4976891;28;21505;-78
2023/10/13 04:07:38;;;;;;;461.47;198.60;;;;;;;;;;4973210;28;20279;-78
2023/10/13 04:15:43;;;;;;;471.00;195.50;;;;;;;;;;4978439;28;20224;-78
2023/10/13 04:18:33;;;;;;;494.03;212.03;;;;;;;;;;4997987;28;20219;-78
2023/10/13 04:21:18;;;;;;;496.07;213.43;;;;;;;;;;4973129;28;20743;-78
2023/10/13 04:26:42;;;;;;;434.47;178.10;;;;;;;;;;4977563;28;20219;-78
2023/10/13 04:29:27;;;;;;;501.27;216.13;;;;;;;;;;4994230;28;20208;-78
2023/10/13 04:32:00;;;;;;;457.77;195.77;;;;;;;;;;4977187;28;20182;-77
2023/10/13 04:34:28;;;;;;;474.47;200.47;;;;;;;;;;4992555;28;20193;-77
2023/10/13 04:37:11;;;;;;;491.73;210.73;;;;;;;;;;4993308;28;22040;-78
2023/10/13 04:39:38;;;;;;;481.20;209.27;;;;;;;;;;4993090;28;21043;-78
2023/10/13 04:42:26;;;;;;;495.00;213.33;;;;;;;;;;4988121;28;20442;-78
2023/10/13 04:44:56;;;;;;;456.57;198.33;;;;;;;;;;4995374;28;20316;-78
2023/10/13 04:47:22;;;;;;;491.27;213.23;;;;;;;;;;4991409;28;20190;-78
2023/10/13 04:52:37;;;;;;;481.73;209.67;;;;;;;;;;4974900;28;20280;-78
2023/10/13 04:55:10;;;;;;;488.40;212.70;;;;;;;;;;4973620;28;20935;-78
2023/10/13 04:57:53;;;;;;;479.77;203.37;;;;;;;;;;4995639;28;20191;-78
2023/10/13 05:03:30;;;;;;;440.53;186.40;;;;;;;;;;4978211;28;20659;-77
2023/10/13 05:52:18;;;;;;;496.50;214.10;;;;;;;;;;4986183;28;20194;-74
2023/10/13 06:30:30;;;;;;;446.60;191.43;;;;;;;;;;4988725;28;20563;-75
2023/10/13 06:32:56;;;;;;;460.13;198.20;;;;;;;;;;4979530;28;20186;-74
2023/10/13 06:35:25;;;;;;;430.80;184.83;;;;;;;;;;4997780;28;20220;-75
2023/10/13 06:37:51;;;;;;;466.80;202.80;;;;;;;;;;4983586;28;20183;-73
2023/10/13 06:40:42;;;;;;;430.90;184.23;;;;;;;;;;5005283;28;20190;-73
2023/10/13 06:43:16;;;;;;;446.90;190.70;;;;;;;;;;4985912;28;20243;-75
2023/10/13 06:45:42;;;;;;;446.67;185.83;;;;;;;;;;4988662;28;20204;-73
2023/10/13 06:48:13;;;;;;;446.07;188.27;;;;;;;;;;5008873;28;20185;-73
2023/10/13 06:50:41;;;;;;;445.47;185.73;;;;;;;;;;5005117;28;20220;-74
2023/10/13 06:53:07;;;;;;;438.73;187.17;;;;;;;;;;4979539;28;21039;-78
2023/10/13 06:55:39;;;;;;;464.63;202.17;;;;;;;;;;4977056;28;20229;-75
2023/10/13 06:58:06;;;;;;;405.27;169.00;;;;;;;;;;4980991;28;20220;-73
2023/10/13 07:00:37;;;;;;;464.27;198.13;;;;;;;;;;4985722;28;20249;-73
2023/10/13 07:03:06;;;;;;;439.40;186.83;;;;;;;;;;4980678;28;20177;-77
2023/10/13 07:05:39;;;;;;;425.37;176.03;;;;;;;;;;4975391;28;20246;-72
2023/10/13 07:08:06;;;;;;;453.50;191.20;;;;;;;;;;4971544;28;20276;-72
2023/10/13 07:10:44;;;;;;;443.97;195.00;;;;;;;;;;4998608;28;20220;-73
2023/10/13 07:13:10;;;;;;;480.23;208.20;;;;;;;;;;4978097;28;20192;-70
2023/10/13 07:15:44;;;;;;;421.00;185.23;;;;;;;;;;4991071;28;20749;-73
2023/10/13 07:18:12;;;;;;;469.33;207.33;;;;;;;;;;4971914;28;20200;-73
2023/10/13 07:20:43;;;;;;;443.90;193.20;;;;;;;;;;4980506;28;20181;-72
2023/10/13 07:23:17;;;;;;;436.83;185.73;;;;;;;;;;4985484;28;20187;-71
2023/10/13 07:25:44;;;;;;;463.30;206.73;;;;;;;;;;4983476;28;20197;-72
2023/10/13 07:28:10;;;;;;;438.97;186.60;;;;;;;;;;4981635;28;20188;-72
2023/10/13 07:31:11;;;;;;;438.80;186.20;;;;;;;;;;4997594;28;20185;-73
2023/10/13 07:33:30;;;;;;;506.20;229.90;;;;;;;;;;4967473;28;20301;-72
2023/10/13 07:36:01;;;;;;;530.53;244.27;;;;;;;;;;4974990;28;20244;-71
2023/10/13 07:38:30;;;;;;;474.67;206.80;;;;;;;;;;4996174;28;21135;-73
2023/10/13 07:40:59;;;;;;;432.33;187.93;;;;;;;;;;4981075;28;20190;-73
2023/10/13 07:43:27;;;;;;;468.37;206.43;;;;;;;;;;4991701;28;20180;-72
2023/10/13 07:45:58;;;;;;;455.77;201.03;;;;;;;;;;4977984;28;20235;-73
2023/10/13 07:48:25;;;;;;;481.70;211.57;;;;;;;;;;4978648;28;20594;-73
2023/10/13 07:51:11;;;;;;;443.47;194.63;;;;;;;;;;5005228;28;20330;-74
2023/10/13 07:53:43;;;;;;;470.37;208.23;;;;;;;;;;4977165;28;20185;-74
2023/10/13 07:56:11;;;;;;;452.37;197.93;;;;;;;;;;5004792;28;20586;-74
2023/10/13 07:58:52;;;;;;;455.87;199.37;;;;;;;;;;4982563;28;20223;-75
2023/10/13 08:01:21;;;;;;;450.23;196.53;;;;;;;;;;4981801;28;20189;-74
2023/10/13 08:03:56;;;;;;;462.57;204.50;;;;;;;;;;4966464;28;20189;-74
2023/10/13 08:06:26;;;;;;;489.10;221.30;;;;;;;;;;4974770;28;20204;-72
2023/10/13 08:08:59;;;;;;;457.17;203.20;;;;;;;;;;5004684;28;20212;-74
2023/10/13 08:11:30;;;;;;;499.20;222.53;;;;;;;;;;4977668;28;20190;-74
2023/10/13 08:14:00;;;;;;;479.13;213.73;;;;;;;;;;4977140;28;20704;-74
2023/10/13 08:17:15;;;;;;;503.67;233.20;;;;;;;;;;4973362;28;20230;-74
2023/10/13 08:19:16;;;;;;;472.03;212.07;;;;;;;;;;4975695;28;20228;-74
2023/10/13 08:21:51;;;;;;;454.37;200.60;;;;;;;;;;4973519;28;20195;-75
2023/10/13 08:24:28;;;;;;;485.87;219.03;;;;;;;;;;4993199;28;20517;-74
2023/10/13 08:27:31;;;;;;;458.03;202.30;;;;;;;;;;4981637;28;20273;-73
2023/10/13 08:45:20;;;;;;;460.50;207.73;;;;;;;;;;4975348;28;20871;-72
2023/10/13 08:47:53;;;;;;;455.67;211.63;;;;;;;;;;4976763;28;20220;-73
2023/10/13 08:50:47;;;;;;;505.50;235.33;;;;;;;;;;4978026;28;20348;-73
2023/10/13 08:53:27;;;;;;;459.53;206.80;;;;;;;;;;4995911;28;20185;-73
2023/10/13 09:07:00;;;;;;;490.30;231.90;;;;;;;;;;4980012;28;20252;-73
2023/10/13 09:09:58;;;;;;;459.57;213.60;;;;;;;;;;4978789;28;20335;-73
2023/10/13 09:14:58;;;;;;;461.23;219.33;;;;;;;;;;4984574;28;20703;-73
2023/10/13 09:23:24;;;;;;;464.23;223.20;;;;;;;;;;5001798;28;20343;-75
2023/10/13 09:25:53;;;;;;;439.37;203.63;;;;;;;;;;4993757;28;20252;-75
2023/10/13 09:28:21;;;;;;;461.50;222.60;;;;;;;;;;5002139;28;20216;-75
2023/10/13 09:30:52;;;;;;;457.83;214.63;;;;;;;;;;5014810;28;20279;-76
2023/10/13 09:33:32;;;;;;;444.17;208.03;;;;;;;;;;4999742;28;20216;-75
2023/10/13 09:35:59;;;;;;;457.07;220.60;;;;;;;;;;5017735;28;20208;-75
2023/10/13 09:38:26;;;;;;;461.67;223.60;;;;;;;;;;5000836;28;20298;-75
2023/10/13 09:40:57;;;;;;;449.87;218.23;;;;;;;;;;5011621;28;20190;-75
2023/10/13 09:43:24;;;;;;;465.90;225.20;;;;;;;;;;4995744;28;20193;-75
2023/10/13 09:46:06;;;;;;;469.43;230.73;;;;;;;;;;5003271;28;20703;-75
2023/10/13 09:48:33;;;;;;;485.57;242.07;;;;;;;;;;4982761;28;20271;-75
2023/10/13 09:51:00;;;;;;;444.87;215.90;;;;;;;;;;4999662;28;20197;-75
2023/10/13 09:53:26;;;;;;;481.60;237.90;;;;;;;;;;5015544;28;20181;-75
2023/10/13 09:56:00;;;;;;;473.00;233.73;;;;;;;;;;4994919;28;20210;-75
2023/10/13 09:58:34;;;;;;;456.57;218.70;;;;;;;;;;4995409;28;20217;-75
2023/10/13 10:01:08;;;;;;;462.43;225.13;;;;;;;;;;5018568;28;20251;-75
2023/10/13 10:03:50;;;;;;;480.30;236.70;;;;;;;;;;4987009;28;21913;-75
2023/10/13 10:06:27;;;;;;;494.07;242.40;;;;;;;;;;4991297;28;20336;-77
2023/10/13 10:08:56;;;;;;;449.70;221.83;;;;;;;;;;4991123;28;20217;-71
2023/10/13 10:11:35;;;;;;;460.90;225.60;;;;;;;;;;4975639;28;21421;-71
2023/10/13 10:14:17;;;;;;;467.93;229.27;;;;;;;;;;4979377;28;20904;-71
2023/10/13 10:17:00;;;;;;;500.93;241.60;;;;;;;;;;4978598;28;20254;-75
2023/10/13 10:19:30;;;;;;;490.00;239.10;;;;;;;;;;5007924;28;20200;-74
2023/10/13 10:22:19;;;;;;;509.10;247.03;;;;;;;;;;4980455;28;20883;-66
2023/10/13 10:24:56;;;;;;;467.53;225.30;;;;;;;;;;4978096;28;20205;-66
2023/10/13 10:27:26;;;;;;;520.20;256.47;;;;;;;;;;4998241;28;20251;-66
2023/10/13 10:29:55;;;;;;;473.57;233.90;;;;;;;;;;4975311;28;20277;-66
2023/10/13 10:32:21;;;;;;;486.93;240.40;;;;;;;;;;4987586;28;20595;-66
2023/10/13 10:34:47;;;;;;;456.20;224.43;;;;;;;;;;5002390;28;20206;-67
2023/10/13 10:37:13;;;;;;;530.30;261.00;;;;;;;;;;4998145;28;20190;-66
2023/10/13 10:39:45;;;;;;;486.80;238.90;;;;;;;;;;4979162;28;20202;-66
2023/10/13 10:42:23;;;;;;;483.73;241.90;;;;;;;;;;4980503;28;20190;-66
2023/10/13 10:44:55;;;;;;;476.87;236.43;;;;;;;;;;4983337;28;20217;-66
2023/10/13 10:47:30;;;;;;;520.33;261.80;;;;;;;;;;4976408;28;20759;-66
2023/10/13 10:49:56;;;;;;;454.97;232.97;;;;;;;;;;4986559;28;20204;-64
2023/10/13 10:52:23;;;;;;;469.17;241.80;;;;;;;;;;4980435;28;20235;-63
2023/10/13 10:54:59;;;;;;;492.13;259.40;;;;;;;;;;4979373;28;20653;-64
2023/10/13 10:57:28;;;;;;;499.03;261.43;;;;;;;;;;4983146;28;20264;-64
2023/10/13 11:00:11;;;;;;;488.07;255.30;;;;;;;;;;4982377;28;20655;-63
2023/10/13 11:02:37;;;;;;;477.77;243.77;;;;;;;;;;4981017;28;20193;-64
2023/10/13 11:05:05;;;;;;;487.87;252.97;;;;;;;;;;4986388;28;20897;-63
2023/10/13 11:07:34;;;;;;;480.93;251.23;;;;;;;;;;4997878;28;20269;-63
2023/10/13 11:10:20;;;;;;;450.33;223.60;;;;;;;;;;5004461;28;20232;-63
2023/10/13 11:12:56;;;;;;;432.97;217.10;;;;;;;;;;4995110;28;20184;-64
2023/10/13 11:15:22;;;;;;;501.67;252.23;;;;;;;;;;4997964;28;20204;-70
2023/10/13 11:17:54;;;;;;;492.33;246.93;;;;;;;;;;5008063;28;20335;-70
2023/10/13 11:20:43;;;;;;;494.43;248.70;;;;;;;;;;4977688;28;20176;-70
2023/10/13 11:23:15;;;;;;;459.47;227.90;;;;;;;;;;5007733;28;20590;-63
2023/10/13 11:25:44;;;;;;;461.63;231.47;;;;;;;;;;4971099;28;20225;-67
2023/10/13 11:28:17;;;;;;;494.97;251.53;;;;;;;;;;4977119;28;20186;-65
2023/10/13 11:30:45;;;;;;;498.67;247.53;;;;;;;;;;4971214;28;20892;-65
2023/10/13 11:33:12;;;;;;;451.90;226.30;;;;;;;;;;4969500;28;20190;-64
2023/10/13 11:39:17;;;;;;;447.33;222.27;;;;;;;;;;4974794;28;20660;-64
2023/10/13 11:41:19;;;;;;;480.03;238.80;;;;;;;;;;4972264;28;20256;-66
2023/10/13 11:43:52;;;;;;;533.00;280.23;;;;;;;;;;4970571;28;20644;-64
2023/10/13 11:49:46;;;;;;;513.43;261.67;;;;;;;;;;4971819;28;20222;-65
2023/10/13 11:51:52;;;;;;;485.40;241.10;;;;;;;;;;4964176;28;20240;-64
2023/10/13 11:54:18;;;;;;;479.13;235.27;;;;;;;;;;4974690;28;20185;-65
2023/10/13 11:56:45;;;;;;;453.37;223.40;;;;;;;;;;4967739;28;20214;-64
2023/10/13 11:59:17;;;;;;;454.00;230.10;;;;;;;;;;4970622;28;20773;-64
2023/10/13 12:04:51;;;;;;;518.10;258.30;;;;;;;;;;4976707;28;20798;-64
2023/10/13 12:07:19;;;;;;;503.83;246.30;;;;;;;;;;4975749;28;25109;-64
2023/10/13 12:12:28;;;;;;;464.97;239.17;;;;;;;;;;4973295;28;20202;-66
2023/10/13 12:14:57;;;;;;;496.37;255.47;;;;;;;;;;4965946;28;20201;-64
2023/10/13 12:17:36;;;;;;;450.13;235.57;;;;;;;;;;4980819;28;20316;-64
2023/10/13 12:20:10;;;;;;;440.90;226.63;;;;;;;;;;4977856;28;20434;-64
2023/10/13 12:22:39;;;;;;;491.40;258.63;;;;;;;;;;5000083;28;20190;-64
2023/10/13 12:25:18;;;;;;;484.93;244.63;;;;;;;;;;4979177;28;20220;-63
2023/10/13 12:27:56;;;;;;;495.63;247.47;;;;;;;;;;5002588;28;20196;-63
2023/10/13 12:30:48;;;;;;;502.87;251.83;;;;;;;;;;4977535;28;20572;-67
2023/10/13 12:33:23;;;;;;;431.30;212.17;;;;;;;;;;4976020;28;20190;-67
2023/10/13 12:36:03;;;;;;;475.63;240.50;;;;;;;;;;4994507;28;20213;-67
2023/10/13 12:50:24;;;;;;;474.70;241.40;;;;;;;;;;4977372;28;20228;-67
2023/10/13 12:52:45;;;;;;;625.67;340.57;;;;;;;;;;4950551;28;20193;-67
2023/10/13 12:55:18;;;;;;;473.50;239.73;;;;;;;;;;4989856;28;20625;-67
2023/10/13 12:57:54;;;;;;;450.23;230.13;;;;;;;;;;4976852;28;20189;-67
2023/10/13 13:00:48;;;;;;;452.50;235.63;;;;;;;;;;4994347;28;20728;-67
2023/10/13 13:03:19;;;;;;;463.43;238.33;;;;;;;;;;4960178;28;20245;-67
2023/10/13 13:06:07;;;;;;;468.20;241.33;;;;;;;;;;4974087;28;20684;-67
2023/10/13 13:08:35;;;;;;;480.70;249.77;;;;;;;;;;4978057;28;20208;-68
2023/10/13 13:11:12;;;;;;;459.33;235.30;;;;;;;;;;4978936;28;20181;-67
2023/10/13 13:14:09;;;;;;;477.57;250.33;;;;;;;;;;4966885;28;20189;-67
2023/10/13 13:16:52;;;;;;;489.27;256.80;;;;;;;;;;4977154;28;20624;-67
2023/10/13 13:19:25;;;;;;;430.43;222.37;;;;;;;;;;4977443;28;20631;-67
2023/10/13 13:21:51;;;;;;;445.27;227.80;;;;;;;;;;4977027;28;20355;-67
2023/10/13 13:24:20;;;;;;;451.87;231.00;;;;;;;;;;4995962;28;20688;-67
2023/10/13 13:27:17;;;;;;;441.90;233.07;;;;;;;;;;4978956;28;20240;-67
2023/10/13 13:30:11;;;;;;;484.77;254.83;;;;;;;;;;4974614;28;20218;-67
2023/10/13 13:35:28;;;;;;;499.90;265.03;;;;;;;;;;4972385;28;20221;-67
2023/10/13 13:38:04;;;;;;;486.33;253.77;;;;;;;;;;4998149;28;20194;-69
2023/10/13 13:41:04;;;;;;;;;;;;;;;;;;;;;
2023/10/13 13:52:44;;;;;;;;;;;;;;;;;;;;;
2023/10/13 13:58:11;;;;;;;442.50;234.53;;;;;;;;;;4979995;28;20225;-69
2023/10/13 14:04:07;;;;;;;469.17;252.67;;;;;;;;;;4972539;28;20202;-73
2023/10/13 14:06:34;;;;;;;484.80;262.83;;;;;;;;;;4989461;28;20220;-73
2023/10/13 14:17:06;;;;;;;510.70;297.77;;;;;;;;;;4968282;28;20658;-47
2023/10/13 14:19:34;;;;;;;494.20;292.47;;;;;;;;;;4978007;28;20264;-47
2023/10/13 14:22:06;;;;;;;558.33;339.00;;;;;;;;;;4976942;28;20224;-47
2023/10/13 14:24:43;;;;;;;477.70;273.87;;;;;;;;;;4990687;28;20724;-47
2023/10/13 14:27:12;;;;;;;508.00;292.10;;;;;;;;;;4983363;28;20206;-47
2023/10/13 14:29:42;;;;;;;509.60;296.70;;;;;;;;;;4976594;28;20319;-47
2023/10/13 14:32:13;;;;;;;500.97;295.30;;;;;;;;;;4985224;28;20211;-47
2023/10/13 14:34:39;;;;;;;502.43;292.13;;;;;;;;;;4992671;28;20184;-47
2023/10/13 14:37:05;;;;;;;556.57;344.93;;;;;;;;;;4976600;28;20200;-47
2023/10/13 14:39:34;;;;;;;526.13;313.23;;;;;;;;;;4986863;28;20216;-47
2023/10/13 14:42:00;;;;;;;514.00;306.67;;;;;;;;;;4987701;28;20242;-47
2023/10/13 14:44:26;;;;;;;482.20;276.97;;;;;;;;;;4982707;28;20959;-47
2023/10/13 14:46:55;;;;;;;496.20;291.30;;;;;;;;;;4983191;28;20276;-47
2023/10/13 14:49:22;;;;;;;524.87;311.60;;;;;;;;;;4990801;28;20207;-47
2023/10/13 14:51:49;;;;;;;527.40;316.50;;;;;;;;;;4980345;28;20212;-47
2023/10/13 14:54:15;;;;;;;446.20;251.67;;;;;;;;;;4991591;28;20632;-47
2023/10/13 14:56:42;;;;;;;504.33;299.50;;;;;;;;;;4984688;28;20750;-47
2023/10/13 14:59:16;;;;;;;495.73;295.50;;;;;;;;;;4971656;28;20227;-47
2023/10/13 15:01:42;;;;;;;520.90;324.80;;;;;;;;;;4985541;28;20375;-48
2023/10/13 15:04:08;;;;;;;534.97;319.80;;;;;;;;;;4987327;28;20267;-47
2023/10/13 15:06:34;;;;;;;508.13;295.67;;;;;;;;;;4977333;28;20792;-47
2023/10/13 15:09:01;;;;;;;504.03;285.07;;;;;;;;;;5000167;28;20242;-47
2023/10/13 15:11:35;;;;;;;436.07;248.63;;;;;;;;;;4993892;28;20629;-47
2023/10/13 15:14:02;;;;;;;433.37;242.33;;;;;;;;;;5000956;28;20274;-47
2023/10/13 15:16:28;;;;;;;533.77;317.10;;;;;;;;;;4995551;28;20200;-47
2023/10/13 15:18:54;;;;;;;428.67;240.80;;;;;;;;;;5001265;28;20208;-47
2023/10/13 15:21:26;;;;;;;506.73;294.03;;;;;;;;;;5007306;28;20191;-47
2023/10/13 15:23:52;;;;;;;532.03;319.60;;;;;;;;;;4998147;28;20454;-47
2023/10/13 15:26:20;;;;;;;465.93;259.87;;;;;;;;;;5002822;28;20184;-47
2023/10/13 15:28:53;;;;;;;614.53;372.67;;;;;;;;;;5003653;28;20607;-47
2023/10/13 15:34:10;;;;;;;469.07;265.30;;;;;;;;;;5006616;28;20258;-47
2023/10/13 15:36:37;;;;;;;475.30;271.13;;;;;;;;;;5017510;28;20206;-47
2023/10/13 15:39:07;;;;;;;449.93;249.60;;;;;;;;;;5015634;28;20230;-48
2023/10/13 15:41:33;;;;;;;485.17;274.47;;;;;;;;;;5016873;28;20220;-47
2023/10/13 15:43:59;;;;;;;458.33;249.43;;;;;;;;;;5020819;28;20198;-47
2023/10/13 15:46:25;;;;;;;546.60;318.03;;;;;;;;;;5015702;28;20180;-47
2023/10/13 15:48:52;;;;;;;457.63;252.87;;;;;;;;;;5011610;28;20286;-47
2023/10/13 15:51:18;;;;;;;482.50;269.30;;;;;;;;;;5014024;28;20756;-47
2023/10/13 15:53:47;;;;;;;480.13;270.70;;;;;;;;;;5021502;28;20207;-47
2023/10/13 15:56:14;;;;;;;439.70;239.50;;;;;;;;;;5019896;28;20188;-47
2023/10/13 15:58:46;;;;;;;473.33;261.37;;;;;;;;;;5014369;28;20203;-48
2023/10/13 16:01:13;;;;;;;501.70;280.47;;;;;;;;;;5002043;28;20192;-47
2023/10/13 16:03:49;;;;;;;557.90;323.60;;;;;;;;;;4991253;28;20251;-47
2023/10/13 16:06:18;;;;;;;506.37;281.03;;;;;;;;;;5001528;28;20368;-47
2023/10/13 16:08:45;;;;;;;565.60;333.03;;;;;;;;;;4984047;28;20204;-48
2023/10/13 16:11:17;;;;;;;491.10;282.17;;;;;;;;;;4993785;28;20196;-47
2023/10/13 16:13:44;;;;;;;565.20;327.30;;;;;;;;;;4986098;28;21044;-48
2023/10/13 16:16:16;;;;;;;493.20;287.90;;;;;;;;;;5000267;28;20504;-48
2023/10/13 16:18:44;;;;;;;546.57;291.90;;;;;;;;;;5019378;22;20354;-56
2023/10/13 16:21:12;;;;;;;493.07;250.70;;;;;;;;;;4988139;28;20770;-57
2023/10/13 16:23:39;;;;;;;661.60;368.57;;;;;;;;;;4984266;28;20190;-56
2023/10/13 16:26:07;;;;;;;470.87;246.00;;;;;;;;;;4985158;28;20209;-56
2023/10/13 16:28:34;;;;;;;492.43;250.73;;;;;;;;;;4990341;28;20214;-55
2023/10/13 16:31:00;;;;;;;485.17;248.40;;;;;;;;;;4994441;28;20188;-57
2023/10/13 16:33:28;;;;;;;475.07;249.73;;;;;;;;;;4990588;28;20701;-55
2023/10/13 16:35:56;;;;;;;538.23;283.87;;;;;;;;;;4989742;28;20199;-55
2023/10/13 16:38:24;;;;;;;483.70;256.37;;;;;;;;;;4989933;28;20191;-56
2023/10/13 16:40:52;;;;;;;540.87;287.43;;;;;;;;;;4989527;28;20189;-56
2023/10/13 16:43:18;;;;;;;528.27;277.60;;;;;;;;;;4989859;28;20667;-56
2023/10/13 16:45:44;;;;;;;541.23;286.77;;;;;;;;;;4989320;28;20187;-56
2023/10/13 16:48:13;;;;;;;491.23;259.93;;;;;;;;;;4993295;28;20175;-56
2023/10/13 16:50:43;;;;;;;499.63;262.03;;;;;;;;;;4998916;28;20216;-56
2023/10/13 16:53:10;;;;;;;478.73;253.33;;;;;;;;;;5007248;28;20634;-56
2023/10/13 16:55:37;;;;;;;544.30;293.23;;;;;;;;;;4994921;28;21569;-56
2023/10/13 16:58:03;;;;;;;541.80;288.87;;;;;;;;;;4997777;28;20175;-56
2023/10/13 17:00:29;;;;;;;489.40;253.77;;;;;;;;;;4994361;28;20302;-56
2023/10/13 17:02:57;;;;;;;465.63;235.97;;;;;;;;;;5004233;28;20572;-56
2023/10/13 17:05:27;;;;;;;454.77;233.13;;;;;;;;;;4993293;28;20702;-55
2023/10/13 17:07:53;;;;;;;523.97;269.27;;;;;;;;;;4999327;28;20561;-56
2023/10/13 17:10:20;;;;;;;515.73;275.43;;;;;;;;;;4988422;28;20243;-56
2023/10/13 17:12:46;;;;;;;557.10;291.17;;;;;;;;;;4988967;28;20554;-56
2023/10/13 17:15:21;;;;;;;524.23;268.50;;;;;;;;;;4993169;28;20611;-56
2023/10/13 17:17:47;;;;;;;510.00;267.57;;;;;;;;;;4999320;28;20705;-55
2023/10/13 17:20:13;;;;;;;491.50;258.00;;;;;;;;;;4990417;28;20238;-57
2023/10/13 17:22:42;;;;;;;485.90;251.53;;;;;;;;;;4997589;28;20191;-55
2023/10/13 17:25:12;;;;;;;492.07;255.13;;;;;;;;;;5008171;28;20212;-56